Time;durP1;ratioP1;P1;durP2;ratioP2;P2;SDS_P1;SDS_P2;PMS_P1;PMS_P2;Temp;Humidity;BMP_temperature;BMP_pressure;BME280_temperature;BME280_humidity;BME280_pressure;Samples;Min_cycle;Max_cycle;Signal;HPM_P1;HPM_P2
2023/04/26 00:01:04;;;;;;;13.10;2.70;;;;;;;;;;110105;1281;22088;-78
2023/04/26 00:03:33;;;;;;;9.00;2.10;;;;;;;;;;110069;1281;22093;-79
2023/04/26 00:06:07;;;;;;;11.40;2.60;;;;;;;;;;110104;1281;22105;-79
2023/04/26 00:08:36;;;;;;;9.70;2.40;;;;;;;;;;110211;1262;22883;-79
2023/04/26 00:11:05;;;;;;;9.60;2.30;;;;;;;;;;110044;1281;22849;-79
2023/04/26 00:13:33;;;;;;;11.30;2.80;;;;;;;;;;110098;1281;22117;-79
2023/04/26 00:16:02;;;;;;;9.40;2.70;;;;;;;;;;110063;1281;22150;-78
2023/04/26 00:18:31;;;;;;;10.40;2.70;;;;;;;;;;110114;1262;22408;-79
2023/04/26 00:21:00;;;;;;;11.30;2.80;;;;;;;;;;110112;1281;22880;-78
2023/04/26 00:23:29;;;;;;;9.60;2.40;;;;;;;;;;110035;1281;22281;-79
2023/04/26 00:25:57;;;;;;;10.20;2.20;;;;;;;;;;110107;1281;22820;-78
2023/04/26 00:28:28;;;;;;;11.30;2.30;;;;;;;;;;110005;1258;22992;-79
2023/04/26 00:30:57;;;;;;;10.30;2.00;;;;;;;;;;110035;1281;22930;-78
2023/04/26 00:40:20;;;;;;;9.50;2.00;;;;;;;;;;103805;1295;546320;-81
2023/04/26 00:42:55;;;;;;;9.90;3.20;;;;;;;;;;106031;1288;23420;-86
2023/04/26 00:45:22;;;;;;;7.50;2.50;;;;;;;;;;106090;1288;24020;-79
2023/04/26 00:47:50;;;;;;;9.40;2.60;;;;;;;;;;106096;1288;22530;-79
2023/04/26 00:50:26;;;;;;;5.70;1.90;;;;;;;;;;106099;1288;22760;-86
2023/04/26 00:52:52;;;;;;;7.90;2.60;;;;;;;;;;104095;1285;2685849;-80
2023/04/26 00:55:21;;;;;;;8.60;2.20;;;;;;;;;;106349;1285;22785;-85
2023/04/26 00:57:48;;;;;;;9.10;2.30;;;;;;;;;;106331;1285;25443;-81
2023/04/26 01:00:15;;;;;;;9.80;2.50;;;;;;;;;;106096;1268;23911;-79
2023/04/26 01:02:42;;;;;;;11.10;2.20;;;;;;;;;;106408;1285;25443;-79
2023/04/26 01:05:09;;;;;;;11.50;2.70;;;;;;;;;;106399;1285;22773;-81
2023/04/26 01:07:39;;;;;;;9.30;2.20;;;;;;;;;;106426;1283;22488;-82
2023/04/26 01:10:08;;;;;;;10.00;2.70;;;;;;;;;;106472;1260;22531;-83
2023/04/26 01:12:36;;;;;;;8.50;2.50;;;;;;;;;;106362;1283;22527;-79
2023/04/26 01:15:04;;;;;;;7.70;1.70;;;;;;;;;;106458;1260;22534;-85
2023/04/26 01:17:31;;;;;;;7.40;1.80;;;;;;;;;;106473;1283;23893;-79
2023/04/26 01:19:58;;;;;;;9.80;2.30;;;;;;;;;;106459;1260;22561;-84
2023/04/26 01:22:27;;;;;;;9.40;2.40;;;;;;;;;;106439;1283;24250;-84
2023/04/26 01:24:56;;;;;;;9.00;2.40;;;;;;;;;;106435;1283;22618;-80
2023/04/26 01:27:23;;;;;;;6.70;1.70;;;;;;;;;;106502;1283;22533;-81
2023/04/26 01:29:50;;;;;;;6.50;1.70;;;;;;;;;;106460;1260;25427;-79
2023/04/26 01:32:17;;;;;;;7.60;1.90;;;;;;;;;;106436;1266;22531;-80
2023/04/26 01:34:44;;;;;;;6.10;2.00;;;;;;;;;;106376;1283;22530;-79
2023/04/26 01:37:11;;;;;;;8.20;1.70;;;;;;;;;;106405;1283;22546;-85
2023/04/26 01:39:38;;;;;;;11.20;2.00;;;;;;;;;;106393;1283;24231;-83
2023/04/26 01:42:05;;;;;;;6.40;1.80;;;;;;;;;;107063;1275;22574;-86
2023/04/26 01:44:32;;;;;;;9.60;2.00;;;;;;;;;;107097;1275;25325;-81
2023/04/26 01:47:01;;;;;;;12.80;2.40;;;;;;;;;;107044;1275;25318;-81
2023/04/26 01:49:37;;;;;;;8.80;1.70;;;;;;;;;;106888;1276;25278;-83
2023/04/26 01:52:03;;;;;;;9.20;2.00;;;;;;;;;;106842;1263;24295;-79
2023/04/26 01:54:30;;;;;;;7.60;1.40;;;;;;;;;;106822;1276;25207;-80
2023/04/26 01:57:02;;;;;;;7.00;1.40;;;;;;;;;;106872;1276;22660;-83
2023/04/26 01:59:29;;;;;;;8.40;1.50;;;;;;;;;;106883;1276;23902;-80
2023/04/26 02:02:01;;;;;;;5.20;1.30;;;;;;;;;;106907;1276;22779;-82
2023/04/26 02:04:31;;;;;;;8.10;1.50;;;;;;;;;;106867;1276;22961;-80
2023/04/26 02:06:58;;;;;;;9.30;1.50;;;;;;;;;;106870;1276;22574;-85
2023/04/26 02:09:25;;;;;;;7.40;1.40;;;;;;;;;;106855;1276;22531;-82
2023/04/26 02:11:51;;;;;;;6.00;1.40;;;;;;;;;;106846;1253;24215;-80
2023/04/26 02:14:38;;;;;;;7.90;1.60;;;;;;;;;;106914;1276;23105;-81
2023/04/26 02:17:05;;;;;;;8.00;1.40;;;;;;;;;;106870;1276;22524;-82
2023/04/26 02:19:34;;;;;;;6.40;1.30;;;;;;;;;;106929;1276;22531;-80
2023/04/26 02:22:05;;;;;;;7.80;1.30;;;;;;;;;;106806;1262;24356;-84
2023/04/26 02:24:34;;;;;;;7.00;1.70;;;;;;;;;;106841;1276;22647;-83
2023/04/26 02:27:03;;;;;;;4.60;1.30;;;;;;;;;;106882;1276;22583;-84
2023/04/26 02:29:35;;;;;;;6.10;1.60;;;;;;;;;;106950;1276;22548;-85
2023/04/26 02:32:03;;;;;;;6.50;1.70;;;;;;;;;;106871;1269;22588;-84
2023/04/26 02:34:38;;;;;;;8.00;1.60;;;;;;;;;;106864;1276;22744;-85
2023/04/26 02:37:06;;;;;;;12.20;1.80;;;;;;;;;;106914;1276;25474;-80
2023/04/26 02:39:33;;;;;;;5.40;1.60;;;;;;;;;;106954;1276;24195;-80
2023/04/26 02:42:00;;;;;;;6.20;1.40;;;;;;;;;;106852;1259;22524;-85
2023/04/26 02:44:30;;;;;;;6.80;2.30;;;;;;;;;;106881;1276;22666;-84
2023/04/26 02:46:57;;;;;;;8.80;2.00;;;;;;;;;;106626;1276;22528;-81
2023/04/26 02:49:23;;;;;;;8.70;2.00;;;;;;;;;;106522;1276;22571;-80
2023/04/26 02:51:57;;;;;;;6.90;1.80;;;;;;;;;;106722;1276;24245;-80
2023/04/26 02:54:24;;;;;;;6.80;1.60;;;;;;;;;;106645;1276;25348;-81
2023/04/26 02:56:51;;;;;;;8.50;2.20;;;;;;;;;;106871;1276;22523;-84
2023/04/26 02:59:21;;;;;;;10.00;2.20;;;;;;;;;;106931;1276;24220;-83
2023/04/26 03:01:51;;;;;;;7.90;2.00;;;;;;;;;;106619;1264;23800;-79
2023/04/26 03:04:18;;;;;;;8.60;2.20;;;;;;;;;;106900;1275;22514;-83
2023/04/26 03:06:54;;;;;;;7.30;1.90;;;;;;;;;;106925;1276;24196;-81
2023/04/26 03:09:30;;;;;;;7.40;1.60;;;;;;;;;;107027;1276;22548;-86
2023/04/26 03:11:57;;;;;;;9.90;2.10;;;;;;;;;;106899;1276;22559;-79
2023/04/26 03:14:24;;;;;;;8.60;1.80;;;;;;;;;;106887;1275;22531;-79
2023/04/26 03:16:54;;;;;;;11.60;2.10;;;;;;;;;;106882;1275;24340;-83
2023/04/26 03:19:23;;;;;;;7.00;1.90;;;;;;;;;;106925;1275;24219;-86
2023/04/26 03:21:53;;;;;;;6.30;1.70;;;;;;;;;;106913;1275;24896;-79
2023/04/26 03:24:46;;;;;;;9.60;2.00;;;;;;;;;;106907;1260;24249;-85
2023/04/26 03:27:13;;;;;;;8.20;1.60;;;;;;;;;;107015;1276;25354;-80
2023/04/26 03:29:40;;;;;;;8.80;1.60;;;;;;;;;;106851;1275;24195;-85
2023/04/26 03:32:09;;;;;;;6.10;1.40;;;;;;;;;;107031;1275;22524;-82
2023/04/26 03:34:36;;;;;;;9.80;2.10;;;;;;;;;;107018;1276;25379;-81
2023/04/26 03:37:04;;;;;;;8.20;1.40;;;;;;;;;;106903;1275;22576;-82
2023/04/26 03:39:31;;;;;;;6.30;1.50;;;;;;;;;;107052;1275;25281;-80
2023/04/26 03:41:58;;;;;;;9.10;1.70;;;;;;;;;;107029;1275;23220;-83
2023/04/26 03:44:25;;;;;;;6.00;1.60;;;;;;;;;;107025;1257;22563;-78
2023/04/26 03:46:52;;;;;;;7.00;1.80;;;;;;;;;;107026;1276;22523;-84
2023/04/26 03:49:19;;;;;;;7.90;1.60;;;;;;;;;;107037;1275;26478;-82
2023/04/26 03:51:47;;;;;;;8.80;1.50;;;;;;;;;;106949;1276;22533;-80
2023/04/26 03:54:18;;;;;;;4.70;1.20;;;;;;;;;;106925;1259;22517;-81
2023/04/26 03:56:48;;;;;;;6.20;1.60;;;;;;;;;;107004;1275;22517;-85
2023/04/26 03:59:23;;;;;;;8.40;1.50;;;;;;;;;;106875;1275;25424;-79
2023/04/26 04:01:59;;;;;;;5.80;1.50;;;;;;;;;;107070;1275;22526;-80
2023/04/26 04:04:27;;;;;;;7.10;1.90;;;;;;;;;;106907;1267;22661;-77
2023/04/26 04:07:02;;;;;;;8.80;1.50;;;;;;;;;;106903;1276;22521;-79
2023/04/26 04:09:37;;;;;;;9.80;1.60;;;;;;;;;;107010;1275;22534;-79
2023/04/26 04:12:09;;;;;;;9.50;1.40;;;;;;;;;;106941;1275;24209;-80
2023/04/26 04:14:46;;;;;;;;;;;;;;;;;;;;;
2023/04/26 04:17:13;;;;;;;7.00;1.40;;;;;;;;;;107022;1276;22579;-83
2023/04/26 04:20:00;;;;;;;5.80;1.10;;;;;;;;;;106853;1275;22496;-85
2023/04/26 04:22:27;;;;;;;10.40;2.10;;;;;;;;;;107026;1275;22537;-83
2023/04/26 04:24:56;;;;;;;8.90;2.10;;;;;;;;;;106844;1269;22528;-78
2023/04/26 04:27:31;;;;;;;7.70;1.60;;;;;;;;;;107008;1275;22632;-83
2023/04/26 04:29:58;;;;;;;7.00;1.60;;;;;;;;;;106882;1275;25551;-83
2023/04/26 04:32:26;;;;;;;7.40;1.60;;;;;;;;;;106896;1275;24250;-80
2023/04/26 04:34:55;;;;;;;7.30;1.50;;;;;;;;;;106925;1259;22533;-79
2023/04/26 04:37:22;;;;;;;6.70;1.30;;;;;;;;;;107024;1275;24247;-83
2023/04/26 04:39:49;;;;;;;6.50;2.20;;;;;;;;;;106959;1275;25310;-80
2023/04/26 04:42:17;;;;;;;7.00;1.40;;;;;;;;;;106915;1275;25223;-81
2023/04/26 04:44:53;;;;;;;8.60;1.60;;;;;;;;;;106784;1276;24000;-78
2023/04/26 04:47:23;;;;;;;11.30;2.20;;;;;;;;;;106816;1276;24198;-83
2023/04/26 04:49:51;;;;;;;8.80;1.60;;;;;;;;;;106889;1276;24186;-79
2023/04/26 04:52:21;;;;;;;9.40;1.60;;;;;;;;;;106876;1276;22527;-79
2023/04/26 04:54:49;;;;;;;7.50;1.80;;;;;;;;;;106907;1267;25204;-79
2023/04/26 04:57:17;;;;;;;10.00;1.80;;;;;;;;;;107050;1275;22527;-81
2023/04/26 04:59:45;;;;;;;10.70;2.40;;;;;;;;;;106962;1275;22535;-80
2023/04/26 05:02:12;;;;;;;18.50;2.60;;;;;;;;;;106984;1275;22764;-82
2023/04/26 05:04:39;;;;;;;9.10;1.50;;;;;;;;;;106854;1264;22639;-81
2023/04/26 05:07:07;;;;;;;8.00;1.90;;;;;;;;;;106884;1276;24349;-85
2023/04/26 05:09:43;;;;;;;5.70;1.30;;;;;;;;;;106920;1276;24224;-82
2023/04/26 05:12:10;;;;;;;8.80;1.40;;;;;;;;;;107051;1276;25319;-82
2023/04/26 05:14:39;;;;;;;6.10;1.40;;;;;;;;;;107013;1276;24360;-78
2023/04/26 05:17:06;;;;;;;5.40;1.20;;;;;;;;;;106859;1257;22522;-80
2023/04/26 05:19:33;;;;;;;11.40;1.50;;;;;;;;;;107064;1275;22540;-82
2023/04/26 05:22:00;;;;;;;7.80;1.50;;;;;;;;;;107008;1276;22581;-79
2023/04/26 05:24:29;;;;;;;7.60;1.60;;;;;;;;;;107037;1275;22527;-82
2023/04/26 05:27:04;;;;;;;7.90;1.20;;;;;;;;;;106987;1275;25262;-79
2023/04/26 05:29:47;;;;;;;8.00;1.20;;;;;;;;;;107044;1276;24195;-77
2023/04/26 05:32:36;;;;;;;6.70;0.90;;;;;;;;;;106900;1275;22524;-81
2023/04/26 05:35:16;;;;;;;7.10;1.20;;;;;;;;;;106889;1257;22649;-77
2023/04/26 05:37:44;;;;;;;10.30;1.30;;;;;;;;;;106881;1276;24404;-78
2023/04/26 05:40:12;;;;;;;8.10;1.20;;;;;;;;;;107008;1275;22633;-79
2023/04/26 05:42:40;;;;;;;9.10;1.10;;;;;;;;;;106919;1276;25355;-83
2023/04/26 05:45:09;;;;;;;6.90;1.10;;;;;;;;;;106994;1276;25342;-78
2023/04/26 05:47:36;;;;;;;6.50;0.90;;;;;;;;;;107020;1269;22535;-82
2023/04/26 05:50:03;;;;;;;5.10;1.00;;;;;;;;;;106909;1276;25336;-81
2023/04/26 05:52:37;;;;;;;5.60;1.20;;;;;;;;;;106882;1276;22535;-78
2023/04/26 05:55:05;;;;;;;9.00;1.20;;;;;;;;;;107004;1275;22648;-78
2023/04/26 05:57:33;;;;;;;6.20;0.90;;;;;;;;;;107098;1267;22822;-85
2023/04/26 06:00:00;;;;;;;10.60;1.30;;;;;;;;;;106895;1276;21765;-83
2023/04/26 06:02:27;;;;;;;10.70;1.30;;;;;;;;;;106950;1276;25312;-77
2023/04/26 06:04:55;;;;;;;10.10;1.90;;;;;;;;;;106856;1276;25297;-78
2023/04/26 06:07:22;;;;;;;9.20;1.10;;;;;;;;;;106836;1269;22820;-78
2023/04/26 06:09:49;;;;;;;8.70;1.60;;;;;;;;;;106920;1276;25318;-81
2023/04/26 06:12:16;;;;;;;7.20;1.20;;;;;;;;;;107106;1275;25346;-79
2023/04/26 06:14:44;;;;;;;9.10;1.00;;;;;;;;;;107029;1275;25346;-83
2023/04/26 06:17:14;;;;;;;10.00;1.20;;;;;;;;;;107041;1267;25014;-81
2023/04/26 06:19:45;;;;;;;13.60;1.20;;;;;;;;;;106957;1276;23898;-85
2023/04/26 06:22:12;;;;;;;7.10;1.30;;;;;;;;;;106753;1276;23249;-80
2023/04/26 06:24:39;;;;;;;9.50;1.40;;;;;;;;;;106904;1254;22611;-80
2023/04/26 06:27:06;;;;;;;10.00;1.10;;;;;;;;;;106866;1257;22541;-81
2023/04/26 06:29:34;;;;;;;9.90;1.50;;;;;;;;;;106993;1276;25304;-81
2023/04/26 06:32:01;;;;;;;7.70;1.10;;;;;;;;;;106861;1276;22537;-83
2023/04/26 06:34:29;;;;;;;9.00;1.30;;;;;;;;;;106908;1276;22665;-80
2023/04/26 06:36:56;;;;;;;7.30;1.30;;;;;;;;;;106902;1276;22579;-79
2023/04/26 06:39:24;;;;;;;7.70;1.30;;;;;;;;;;106958;1276;25227;-78
2023/04/26 06:41:51;;;;;;;12.80;1.80;;;;;;;;;;106994;1276;26491;-78
2023/04/26 06:44:25;;;;;;;9.60;2.10;;;;;;;;;;107015;1275;23899;-81
2023/04/26 06:46:54;;;;;;;9.60;1.90;;;;;;;;;;106872;1260;24368;-82
2023/04/26 06:49:21;;;;;;;22.70;9.20;;;;;;;;;;106892;1276;22486;-83
2023/04/26 06:51:48;;;;;;;31.90;12.40;;;;;;;;;;107049;1276;25325;-80
2023/04/26 06:54:15;;;;;;;46.00;16.90;;;;;;;;;;107044;1276;24242;-77
2023/04/26 06:56:42;;;;;;;23.30;7.70;;;;;;;;;;107035;1254;22584;-78
2023/04/26 06:59:09;;;;;;;48.20;10.90;;;;;;;;;;106838;1276;22588;-79
2023/04/26 07:01:36;;;;;;;25.10;8.10;;;;;;;;;;106904;1276;22518;-79
2023/04/26 07:04:03;;;;;;;32.00;9.30;;;;;;;;;;106877;1276;22579;-84
2023/04/26 07:06:37;;;;;;;22.20;6.60;;;;;;;;;;106970;1276;22640;-83
2023/04/26 07:09:04;;;;;;;47.60;16.30;;;;;;;;;;107027;1258;24692;-77
2023/04/26 07:11:31;;;;;;;17.90;4.00;;;;;;;;;;107126;1270;22527;-78
2023/04/26 07:14:00;;;;;;;13.10;2.40;;;;;;;;;;107102;1276;24236;-77
2023/04/26 07:16:28;;;;;;;10.90;1.80;;;;;;;;;;107085;1276;25309;-80
2023/04/26 07:19:02;;;;;;;18.30;3.50;;;;;;;;;;107042;1256;25239;-78
2023/04/26 07:21:29;;;;;;;14.60;2.60;;;;;;;;;;106984;1273;23241;-78
2023/04/26 07:23:56;;;;;;;10.30;1.80;;;;;;;;;;106958;1276;24397;-77
2023/04/26 07:26:25;;;;;;;8.90;1.20;;;;;;;;;;106958;1272;24190;-77
2023/04/26 07:28:52;;;;;;;8.60;2.10;;;;;;;;;;106950;1260;25735;-79
2023/04/26 07:31:30;;;;;;;10.70;2.00;;;;;;;;;;107073;1274;22536;-80
2023/04/26 07:33:57;;;;;;;9.10;1.90;;;;;;;;;;107057;1274;22684;-78
2023/04/26 07:36:24;;;;;;;11.60;2.30;;;;;;;;;;107102;1276;25226;-82
2023/04/26 07:38:51;;;;;;;9.80;2.50;;;;;;;;;;107034;1256;24342;-78
2023/04/26 07:41:17;;;;;;;9.00;1.90;;;;;;;;;;106942;1275;25340;-80
2023/04/26 07:43:44;;;;;;;9.90;2.20;;;;;;;;;;107061;1276;25281;-78
2023/04/26 07:46:11;;;;;;;8.90;1.60;;;;;;;;;;106907;1273;22527;-82
2023/04/26 07:48:38;;;;;;;8.10;1.70;;;;;;;;;;106941;1270;22629;-80
2023/04/26 07:51:09;;;;;;;7.10;1.30;;;;;;;;;;106930;1275;23901;-77
2023/04/26 07:53:44;;;;;;;6.10;1.10;;;;;;;;;;107044;1276;24573;-83
2023/04/26 07:56:11;;;;;;;8.00;1.20;;;;;;;;;;107138;1276;25259;-78
2023/04/26 07:58:38;;;;;;;7.20;1.20;;;;;;;;;;106977;1257;24199;-81
2023/04/26 08:01:10;;;;;;;6.10;1.20;;;;;;;;;;106895;1270;22536;-78
2023/04/26 08:03:37;;;;;;;8.30;1.40;;;;;;;;;;106785;1276;22495;-78
2023/04/26 08:06:10;;;;;;;8.10;1.60;;;;;;;;;;106973;1275;24195;-78
2023/04/26 08:08:43;;;;;;;8.70;1.30;;;;;;;;;;106792;1259;22636;-76
2023/04/26 08:11:10;;;;;;;7.90;1.40;;;;;;;;;;107008;1276;25255;-78
2023/04/26 08:13:37;;;;;;;11.80;1.80;;;;;;;;;;106964;1269;22766;-79
2023/04/26 08:16:05;;;;;;;10.20;1.30;;;;;;;;;;106944;1274;24192;-84
2023/04/26 08:18:32;;;;;;;7.80;1.20;;;;;;;;;;106885;1260;22520;-79
2023/04/26 08:21:05;;;;;;;6.10;1.00;;;;;;;;;;106941;1273;25249;-81
2023/04/26 08:23:35;;;;;;;8.90;1.50;;;;;;;;;;106759;1276;22527;-83
2023/04/26 08:26:02;;;;;;;9.00;1.80;;;;;;;;;;107057;1270;23880;-81
2023/04/26 08:28:32;;;;;;;5.90;1.20;;;;;;;;;;106834;1276;22685;-78
2023/04/26 08:30:59;;;;;;;6.80;1.00;;;;;;;;;;106769;1260;25290;-78
2023/04/26 08:33:26;;;;;;;8.00;1.10;;;;;;;;;;106854;1277;22639;-77
2023/04/26 08:35:53;;;;;;;6.20;1.20;;;;;;;;;;106715;1278;24206;-77
2023/04/26 08:38:21;;;;;;;10.50;1.80;;;;;;;;;;106867;1270;22530;-78
2023/04/26 08:41:09;;;;;;;6.50;1.60;;;;;;;;;;106994;1257;23914;-79
2023/04/26 08:43:37;;;;;;;7.00;1.40;;;;;;;;;;106905;1273;24200;-77
2023/04/26 08:46:23;;;;;;;7.40;1.30;;;;;;;;;;106978;1273;25331;-78
2023/04/26 08:48:56;;;;;;;8.30;1.50;;;;;;;;;;107028;1270;22555;-80
2023/04/26 08:51:32;;;;;;;10.00;1.90;;;;;;;;;;106984;1267;25437;-79
2023/04/26 08:54:03;;;;;;;7.80;1.40;;;;;;;;;;106985;1273;22181;-78
2023/04/26 08:56:40;;;;;;;7.40;1.60;;;;;;;;;;106859;1276;22987;-78
2023/04/26 08:59:10;;;;;;;6.70;1.00;;;;;;;;;;106916;1259;23958;-78
2023/04/26 09:01:41;;;;;;;4.60;0.90;;;;;;;;;;106761;1270;25282;-79
2023/04/26 09:04:08;;;;;;;9.50;1.60;;;;;;;;;;106824;1270;22524;-80
2023/04/26 09:06:36;;;;;;;9.10;2.40;;;;;;;;;;106853;1276;22530;-81
2023/04/26 09:09:09;;;;;;;10.20;2.20;;;;;;;;;;106788;1278;24224;-82
2023/04/26 09:11:52;;;;;;;9.10;2.20;;;;;;;;;;106779;1276;25341;-81
2023/04/26 09:14:19;;;;;;;8.90;1.80;;;;;;;;;;106834;1273;24189;-81
2023/04/26 09:16:46;;;;;;;6.90;1.00;;;;;;;;;;106821;1276;22996;-84
2023/04/26 09:19:14;;;;;;;14.30;4.80;;;;;;;;;;106918;1274;22484;-78
2023/04/26 09:21:42;;;;;;;10.60;3.00;;;;;;;;;;106855;1269;22543;-81
2023/04/26 09:24:08;;;;;;;10.40;1.90;;;;;;;;;;106869;1276;22599;-79
2023/04/26 09:26:38;;;;;;;11.40;1.90;;;;;;;;;;106853;1271;25429;-79
2023/04/26 09:29:19;;;;;;;8.30;1.60;;;;;;;;;;106736;1275;22620;-82
2023/04/26 09:31:50;;;;;;;6.80;1.20;;;;;;;;;;106835;1264;25523;-78
2023/04/26 09:34:17;;;;;;;10.70;2.00;;;;;;;;;;107001;1276;24238;-78
2023/04/26 09:36:50;;;;;;;8.00;1.50;;;;;;;;;;106893;1276;25244;-82
2023/04/26 09:39:36;;;;;;;9.60;1.60;;;;;;;;;;106896;1275;22527;-86
2023/04/26 09:42:04;;;;;;;7.70;0.80;;;;;;;;;;106791;1256;22527;-83
2023/04/26 09:44:31;;;;;;;11.60;1.40;;;;;;;;;;106729;1275;23880;-77
2023/04/26 09:46:59;;;;;;;6.80;1.00;;;;;;;;;;110428;1276;22309;-78
2023/04/26 09:49:26;;;;;;;6.30;1.30;;;;;;;;;;110440;1276;22145;-77
2023/04/26 09:52:00;;;;;;;7.90;1.40;;;;;;;;;;110589;1254;22415;-78
2023/04/26 09:54:47;;;;;;;4.90;1.10;;;;;;;;;;110477;1275;22339;-78
2023/04/26 09:57:15;;;;;;;5.80;1.10;;;;;;;;;;110521;1276;22117;-78
2023/04/26 09:59:46;;;;;;;8.20;1.60;;;;;;;;;;110472;1276;22119;-78
2023/04/26 10:02:14;;;;;;;7.90;1.70;;;;;;;;;;110686;1254;21991;-79
2023/04/26 10:04:43;;;;;;;9.60;1.30;;;;;;;;;;110495;1273;22098;-77
2023/04/26 10:07:11;;;;;;;9.50;2.50;;;;;;;;;;110473;1276;22146;-78
2023/04/26 10:09:41;;;;;;;9.80;1.60;;;;;;;;;;110486;1276;22955;-78
2023/04/26 10:12:09;;;;;;;5.50;1.10;;;;;;;;;;110500;1257;22129;-77
2023/04/26 10:14:36;;;;;;;9.20;1.20;;;;;;;;;;110537;1276;22125;-77
2023/04/26 10:17:04;;;;;;;7.80;1.60;;;;;;;;;;110579;1276;22220;-78
2023/04/26 10:19:31;;;;;;;7.00;1.20;;;;;;;;;;110410;1276;23181;-78
2023/04/26 10:22:00;;;;;;;9.20;2.10;;;;;;;;;;110423;1258;22221;-78
2023/04/26 10:24:27;;;;;;;8.20;1.80;;;;;;;;;;110402;1276;22201;-77
2023/04/26 10:26:58;;;;;;;9.60;1.50;;;;;;;;;;110508;1270;22526;-80
2023/04/26 10:29:26;;;;;;;7.50;1.60;;;;;;;;;;110442;1275;22185;-79
2023/04/26 10:32:16;;;;;;;7.80;1.40;;;;;;;;;;110353;1259;22392;-79
2023/04/26 10:35:04;;;;;;;7.70;1.10;;;;;;;;;;110298;1278;22284;-79
2023/04/26 10:37:31;;;;;;;5.00;1.00;;;;;;;;;;110354;1278;22122;-79
2023/04/26 10:40:17;;;;;;;4.50;0.70;;;;;;;;;;110305;1278;22122;-81
2023/04/26 10:42:45;;;;;;;8.80;1.50;;;;;;;;;;110670;1253;22121;-80
2023/04/26 10:45:42;;;;;;;3.60;0.80;;;;;;;;;;110418;1277;22724;-76
2023/04/26 10:48:18;;;;;;;6.00;0.90;;;;;;;;;;110317;1277;22143;-77
2023/04/26 10:51:00;;;;;;;5.30;1.00;;;;;;;;;;110472;1273;22886;-77
2023/04/26 10:53:29;;;;;;;8.90;1.00;;;;;;;;;;110701;1254;22128;-76
2023/04/26 10:55:55;;;;;;;5.90;1.10;;;;;;;;;;110438;1277;22129;-77
2023/04/26 10:58:29;;;;;;;5.70;0.90;;;;;;;;;;110400;1277;22169;-76
2023/04/26 11:01:03;;;;;;;5.50;0.80;;;;;;;;;;110185;1277;22172;-76
2023/04/26 11:03:30;;;;;;;8.10;1.20;;;;;;;;;;110414;1259;22151;-76
2023/04/26 11:05:57;;;;;;;5.30;1.00;;;;;;;;;;110378;1277;22868;-78
2023/04/26 11:08:28;;;;;;;5.00;1.30;;;;;;;;;;110451;1277;22105;-77
2023/04/26 11:11:05;;;;;;;3.50;0.90;;;;;;;;;;110395;1277;22410;-79
2023/04/26 11:13:32;;;;;;;4.30;0.90;;;;;;;;;;110784;1256;22149;-77
2023/04/26 11:16:04;;;;;;;7.10;1.20;;;;;;;;;;110213;1277;22282;-78
2023/04/26 11:18:31;;;;;;;4.30;0.70;;;;;;;;;;110392;1277;22301;-77
2023/04/26 11:20:58;;;;;;;8.80;1.00;;;;;;;;;;110429;1277;22112;-78
2023/04/26 11:23:26;;;;;;;8.00;1.20;;;;;;;;;;110640;1255;22226;-77
2023/04/26 11:25:53;;;;;;;9.70;2.00;;;;;;;;;;110386;1277;22112;-78
2023/04/26 11:28:22;;;;;;;9.00;0.90;;;;;;;;;;110469;1277;22124;-78
2023/04/26 11:30:49;;;;;;;3.10;0.70;;;;;;;;;;110434;1277;22072;-77
2023/04/26 11:33:17;;;;;;;5.60;0.80;;;;;;;;;;110552;1254;22944;-78
2023/04/26 11:35:55;;;;;;;11.50;1.70;;;;;;;;;;110312;1277;22209;-78
2023/04/26 11:38:22;;;;;;;5.30;1.00;;;;;;;;;;110420;1277;22244;-78
2023/04/26 11:40:55;;;;;;;5.40;1.30;;;;;;;;;;110319;1277;22134;-77
2023/04/26 11:43:22;;;;;;;8.80;2.10;;;;;;;;;;110513;1256;22212;-77
2023/04/26 11:45:49;;;;;;;8.40;1.40;;;;;;;;;;110308;1277;22095;-88
2023/04/26 11:48:16;;;;;;;8.80;1.80;;;;;;;;;;110430;1277;22643;-78
2023/04/26 11:50:42;;;;;;;6.70;1.10;;;;;;;;;;110388;1277;22098;-78
2023/04/26 11:53:09;;;;;;;11.20;1.80;;;;;;;;;;110472;1256;22109;-79
2023/04/26 11:55:38;;;;;;;14.90;2.20;;;;;;;;;;110408;1277;22083;-78
2023/04/26 11:58:09;;;;;;;10.90;1.60;;;;;;;;;;110439;1277;22606;-78
2023/04/26 12:00:36;;;;;;;5.80;0.90;;;;;;;;;;110307;1277;22133;-77
2023/04/26 12:03:04;;;;;;;6.90;1.40;;;;;;;;;;110190;1254;22156;-77
2023/04/26 12:05:31;;;;;;;9.30;1.60;;;;;;;;;;110360;1277;22774;-77
2023/04/26 12:07:59;;;;;;;7.50;1.80;;;;;;;;;;110433;1277;22140;-78
2023/04/26 12:10:27;;;;;;;5.60;1.10;;;;;;;;;;110343;1277;22156;-77
2023/04/26 12:12:57;;;;;;;5.70;1.10;;;;;;;;;;110186;1277;22437;-78
2023/04/26 12:15:27;;;;;;;7.10;1.60;;;;;;;;;;110654;1270;22977;-78
2023/04/26 12:17:56;;;;;;;7.80;1.80;;;;;;;;;;110442;1277;22191;-79
2023/04/26 12:20:30;;;;;;;8.20;1.30;;;;;;;;;;110448;1277;22127;-78
2023/04/26 12:22:58;;;;;;;9.70;2.30;;;;;;;;;;110147;1277;22224;-79
2023/04/26 12:25:25;;;;;;;7.10;1.60;;;;;;;;;;110702;1255;22126;-77
2023/04/26 12:28:12;;;;;;;9.20;1.80;;;;;;;;;;110432;1277;22114;-78
2023/04/26 12:30:39;;;;;;;7.40;0.90;;;;;;;;;;110430;1277;22871;-78
2023/04/26 12:33:07;;;;;;;4.90;1.10;;;;;;;;;;110286;1278;22205;-78
2023/04/26 12:35:34;;;;;;;6.00;1.00;;;;;;;;;;110400;1261;22203;-78
2023/04/26 12:38:01;;;;;;;6.40;1.10;;;;;;;;;;110392;1278;22657;-77
2023/04/26 12:40:28;;;;;;;8.10;1.70;;;;;;;;;;110400;1278;22133;-78
2023/04/26 12:42:55;;;;;;;7.40;2.00;;;;;;;;;;110290;1278;22104;-78
2023/04/26 12:45:23;;;;;;;6.60;1.10;;;;;;;;;;110295;1256;22157;-78
2023/04/26 12:47:50;;;;;;;5.70;1.30;;;;;;;;;;110383;1278;22111;-79
2023/04/26 12:50:26;;;;;;;4.80;0.80;;;;;;;;;;110272;1278;22922;-78
2023/04/26 12:52:53;;;;;;;3.60;0.90;;;;;;;;;;107966;1278;2855597;-77
2023/04/26 12:55:24;;;;;;;4.50;0.70;;;;;;;;;;110543;1260;22186;-79
2023/04/26 12:57:51;;;;;;;6.70;0.80;;;;;;;;;;110285;1278;22024;-79
2023/04/26 13:00:18;;;;;;;4.50;1.00;;;;;;;;;;110287;1278;22773;-78
2023/04/26 13:02:45;;;;;;;6.60;1.20;;;;;;;;;;110272;1278;22017;-78
2023/04/26 13:05:13;;;;;;;4.10;0.80;;;;;;;;;;110476;1260;22118;-78
2023/04/26 13:07:42;;;;;;;5.10;0.80;;;;;;;;;;110273;1278;22160;-78
2023/04/26 13:10:10;;;;;;;7.20;1.00;;;;;;;;;;110278;1278;22762;-77
2023/04/26 13:12:37;;;;;;;10.70;1.20;;;;;;;;;;110263;1278;22740;-79
2023/04/26 13:15:08;;;;;;;5.60;0.90;;;;;;;;;;110475;1256;22193;-77
2023/04/26 13:17:36;;;;;;;4.80;1.20;;;;;;;;;;110376;1278;22140;-77
2023/04/26 13:20:04;;;;;;;6.90;1.20;;;;;;;;;;110399;1278;22113;-77
2023/04/26 13:22:32;;;;;;;7.70;1.00;;;;;;;;;;110393;1278;22827;-77
2023/04/26 13:24:59;;;;;;;5.50;1.30;;;;;;;;;;110311;1256;22932;-76
2023/04/26 13:27:26;;;;;;;8.00;0.90;;;;;;;;;;110296;1264;22096;-76
2023/04/26 13:29:53;;;;;;;6.00;0.90;;;;;;;;;;110400;1278;21746;-78
2023/04/26 13:32:20;;;;;;;4.90;1.00;;;;;;;;;;110397;1278;22098;-78
2023/04/26 13:34:48;;;;;;;8.30;2.30;;;;;;;;;;110320;1255;22180;-78
2023/04/26 13:37:16;;;;;;;9.10;1.50;;;;;;;;;;110151;1278;22146;-78
2023/04/26 13:39:43;;;;;;;9.30;1.80;;;;;;;;;;110161;1278;22275;-78
2023/04/26 13:42:15;;;;;;;8.90;1.50;;;;;;;;;;110223;1278;22952;-79
2023/04/26 13:44:42;;;;;;;6.20;1.40;;;;;;;;;;110282;1275;22347;-79
2023/04/26 13:47:08;;;;;;;7.30;1.00;;;;;;;;;;110574;1259;22143;-78
2023/04/26 13:49:37;;;;;;;5.10;1.00;;;;;;;;;;110152;1264;22202;-78
2023/04/26 13:52:07;;;;;;;6.80;1.10;;;;;;;;;;110205;1278;22848;-78
2023/04/26 13:54:34;;;;;;;8.40;1.30;;;;;;;;;;110202;1278;22218;-77
2023/04/26 13:57:01;;;;;;;5.60;1.30;;;;;;;;;;110590;1256;22145;-78
2023/04/26 13:59:29;;;;;;;5.10;1.20;;;;;;;;;;110123;1278;22123;-78
2023/04/26 14:01:56;;;;;;;5.70;1.10;;;;;;;;;;110322;1278;23172;-78
2023/04/26 14:04:23;;;;;;;5.80;1.00;;;;;;;;;;110154;1278;22208;-80
2023/04/26 14:06:50;;;;;;;6.40;0.90;;;;;;;;;;110422;1260;22135;-78
2023/04/26 14:09:17;;;;;;;5.10;1.00;;;;;;;;;;110226;1278;22123;-78
2023/04/26 14:11:44;;;;;;;4.30;0.80;;;;;;;;;;110326;1278;22799;-78
2023/04/26 14:14:11;;;;;;;9.60;1.10;;;;;;;;;;110152;1278;22108;-78
2023/04/26 14:16:38;;;;;;;8.10;1.10;;;;;;;;;;110535;1256;22123;-78
2023/04/26 14:19:04;;;;;;;4.90;0.80;;;;;;;;;;110218;1278;22903;-78
2023/04/26 14:21:31;;;;;;;6.50;1.20;;;;;;;;;;110296;1278;22092;-78
2023/04/26 14:23:58;;;;;;;6.40;1.20;;;;;;;;;;110288;1278;22135;-78
2023/04/26 14:26:27;;;;;;;6.40;1.30;;;;;;;;;;110380;1259;22129;-76
2023/04/26 14:28:54;;;;;;;4.70;0.80;;;;;;;;;;110209;1278;22133;-77
2023/04/26 14:31:23;;;;;;;4.50;0.70;;;;;;;;;;110322;1275;22129;-78
2023/04/26 14:33:51;;;;;;;4.60;0.90;;;;;;;;;;110282;1279;22118;-80
2023/04/26 14:36:18;;;;;;;5.10;0.70;;;;;;;;;;110184;1259;22859;-79
2023/04/26 14:38:45;;;;;;;6.20;0.90;;;;;;;;;;110228;1279;22929;-78
2023/04/26 14:41:13;;;;;;;6.10;1.30;;;;;;;;;;110162;1276;22134;-78
2023/04/26 14:43:40;;;;;;;3.90;1.10;;;;;;;;;;110160;1279;22109;-77
2023/04/26 14:46:08;;;;;;;4.90;0.90;;;;;;;;;;110251;1257;22153;-77
2023/04/26 14:48:34;;;;;;;7.00;1.30;;;;;;;;;;110171;1279;22104;-78